createdAt,value
2018-10-12T00:00:09.449Z,141
2018-10-12T00:00:21.875Z,141
2018-10-12T00:00:34.292Z,141
2018-10-12T00:00:46.716Z,141
2018-10-12T00:00:59.113Z,141
2018-10-12T00:01:11.533Z,141
2018-10-12T00:01:23.948Z,141
2018-10-12T00:01:36.363Z,141
2018-10-12T00:01:48.794Z,141
2018-10-12T00:02:01.224Z,141
2018-10-12T00:02:13.621Z,89
2018-10-12T00:02:26.008Z,119
2018-10-12T00:02:38.450Z,119
2018-10-12T00:02:50.849Z,119
2018-10-12T00:03:03.230Z,119
2018-10-12T00:03:15.618Z,119
2018-10-12T00:03:28.008Z,119
2018-10-12T00:03:40.427Z,119
2018-10-12T00:03:52.817Z,119
2018-10-12T00:04:05.356Z,119
2018-10-12T00:04:17.846Z,119
2018-10-12T00:04:30.314Z,119
2018-10-12T00:04:42.732Z,119
2018-10-12T00:04:55.139Z,119
2018-10-12T00:05:07.564Z,119
2018-10-12T00:05:19.958Z,119
2018-10-12T00:05:32.397Z,119
2018-10-12T00:05:44.795Z,119
2018-10-12T00:05:57.250Z,119
2018-10-12T00:06:09.640Z,119
2018-10-12T00:06:22.115Z,119
2018-10-12T00:06:34.489Z,119
2018-10-12T00:06:46.895Z,119
2018-10-12T00:06:59.281Z,119
2018-10-12T00:07:11.691Z,119
2018-10-12T00:07:24.079Z,119
2018-10-12T00:07:36.479Z,119
2018-10-12T00:07:48.943Z,119
2018-10-12T00:08:01.328Z,119
2018-10-12T00:08:13.717Z,119
2018-10-12T00:08:26.116Z,119
2018-10-12T00:08:38.486Z,119
2018-10-12T00:08:50.885Z,119
2018-10-12T00:09:03.283Z,119
2018-10-12T00:09:15.670Z,119
2018-10-12T00:09:28.055Z,119
2018-10-12T00:09:40.463Z,119
2018-10-12T00:09:52.851Z,119
2018-10-12T00:10:05.260Z,119
2018-10-12T00:10:18.009Z,119
2018-10-12T00:10:30.403Z,119
2018-10-12T00:10:42.794Z,119
2018-10-12T00:10:55.313Z,119
2018-10-12T00:11:07.716Z,119
2018-10-12T00:11:20.125Z,119
2018-10-12T00:11:32.521Z,119
2018-10-12T00:11:44.927Z,119
2018-10-12T00:11:57.324Z,119
2018-10-12T00:12:09.711Z,119
2018-10-12T00:12:22.095Z,119
2018-10-12T00:12:34.483Z,119
2018-10-12T00:12:47.118Z,119
2018-10-12T00:12:59.556Z,119
2018-10-12T00:13:11.965Z,119
2018-10-12T00:13:24.351Z,119
2018-10-12T00:13:36.743Z,119
2018-10-12T00:13:49.127Z,119
2018-10-12T00:14:01.527Z,119
2018-10-12T00:14:13.957Z,119
2018-10-12T00:14:26.354Z,119
2018-10-12T00:14:38.754Z,119
2018-10-12T00:14:51.600Z,119
2018-10-12T00:15:04.016Z,119
2018-10-12T00:15:16.462Z,119
2018-10-12T00:15:28.841Z,119
2018-10-12T00:15:41.230Z,119
2018-10-12T00:15:53.617Z,119
2018-10-12T00:16:06.025Z,119
2018-10-12T00:16:18.547Z,119
2018-10-12T00:16:30.959Z,119
2018-10-12T00:16:43.359Z,115
2018-10-12T00:16:55.779Z,115
2018-10-12T00:17:08.190Z,115
2018-10-12T00:17:20.835Z,115
2018-10-12T00:17:33.244Z,115
2018-10-12T00:17:45.670Z,115
2018-10-12T00:17:58.069Z,115
2018-10-12T00:18:10.470Z,115
2018-10-12T00:18:22.902Z,115
2018-10-12T00:18:35.300Z,115
2018-10-12T00:18:47.685Z,115
2018-10-12T00:19:00.121Z,115
2018-10-12T00:19:12.544Z,115
2018-10-12T00:19:25.174Z,115
2018-10-12T00:19:37.584Z,115
2018-10-12T00:19:50.006Z,115
2018-10-12T00:20:02.415Z,115
2018-10-12T00:20:14.827Z,115
2018-10-12T00:20:27.629Z,115
2018-10-12T00:20:40.039Z,115
2018-10-12T00:20:52.541Z,115
2018-10-12T00:21:04.958Z,115
2018-10-12T00:21:17.350Z,119
2018-10-12T00:21:29.749Z,119
2018-10-12T00:21:42.115Z,119
2018-10-12T00:21:54.508Z,119
2018-10-12T00:22:06.894Z,119
2018-10-12T00:22:19.354Z,119
2018-10-12T00:22:31.757Z,119
2018-10-12T00:22:44.151Z,119
2018-10-12T00:22:56.560Z,119
2018-10-12T00:23:08.976Z,119
2018-10-12T00:23:21.431Z,119
2018-10-12T00:23:33.812Z,119
2018-10-12T00:23:46.190Z,119
2018-10-12T00:23:58.587Z,119
2018-10-12T00:24:11.001Z,119
2018-10-12T00:24:23.555Z,119
2018-10-12T00:24:35.961Z,119
2018-10-12T00:24:48.451Z,119
2018-10-12T00:25:01.041Z,119
2018-10-12T00:25:13.451Z,119
2018-10-12T00:25:25.853Z,119
2018-10-12T00:25:38.248Z,119
2018-10-12T00:25:50.649Z,119
2018-10-12T00:26:03.106Z,119
2018-10-12T00:26:15.495Z,119
2018-10-12T00:26:27.925Z,119
2018-10-12T00:26:40.333Z,119
2018-10-12T00:26:53.447Z,119
2018-10-12T00:27:05.840Z,119
2018-10-12T00:27:18.245Z,119
2018-10-12T00:27:31.829Z,119
2018-10-12T00:27:44.220Z,119
2018-10-12T00:27:56.634Z,119
2018-10-12T00:28:09.031Z,119
2018-10-12T00:28:21.424Z,119
2018-10-12T00:28:33.806Z,119
2018-10-12T00:28:46.210Z,119
2018-10-12T00:28:58.698Z,119
2018-10-12T00:29:11.083Z,119
2018-10-12T00:29:23.496Z,119
2018-10-12T00:29:35.900Z,119
2018-10-12T00:29:49.255Z,119
2018-10-12T00:30:01.699Z,119
2018-10-12T00:30:14.118Z,119
2018-10-12T00:30:26.516Z,119
2018-10-12T00:30:38.923Z,119
2018-10-12T00:30:51.309Z,119
2018-10-12T00:31:03.718Z,119
2018-10-12T00:31:16.334Z,119
2018-10-12T00:31:28.876Z,119
2018-10-12T00:31:41.299Z,119
2018-10-12T00:31:53.700Z,119
2018-10-12T00:32:06.091Z,119
2018-10-12T00:32:18.485Z,119
2018-10-12T00:32:30.890Z,119
2018-10-12T00:32:43.281Z,119
2018-10-12T00:32:55.669Z,119
2018-10-12T00:33:08.070Z,119
2018-10-12T00:33:20.461Z,119
2018-10-12T00:33:32.901Z,119
2018-10-12T00:33:45.284Z,119
2018-10-12T00:33:57.674Z,119
2018-10-12T00:34:10.104Z,119
2018-10-12T00:34:22.506Z,119
2018-10-12T00:34:34.909Z,119
2018-10-12T00:34:47.403Z,119
2018-10-12T00:34:59.789Z,119
2018-10-12T00:35:12.173Z,119
2018-10-12T00:35:24.585Z,119
2018-10-12T00:35:36.986Z,119
2018-10-12T00:35:49.384Z,119
2018-10-12T00:36:01.850Z,119
2018-10-12T00:36:14.223Z,119
2018-10-12T00:36:26.621Z,119
2018-10-12T00:36:39.001Z,119
2018-10-12T00:36:51.407Z,119
2018-10-12T00:37:03.811Z,119
2018-10-12T00:37:16.242Z,119
2018-10-12T00:37:28.626Z,119
2018-10-12T00:37:41.035Z,119
2018-10-12T00:37:53.448Z,119
2018-10-12T00:38:05.880Z,119
2018-10-12T00:38:18.252Z,119
2018-10-12T00:38:30.738Z,119
2018-10-12T00:38:43.195Z,119
2018-10-12T00:38:55.590Z,119
2018-10-12T00:39:08.004Z,119
2018-10-12T00:39:20.412Z,119
2018-10-12T00:39:32.863Z,119
2018-10-12T00:39:45.727Z,119
2018-10-12T00:39:58.122Z,119
2018-10-12T00:40:10.592Z,119
2018-10-12T00:40:22.982Z,119
2018-10-12T00:40:35.369Z,119
2018-10-12T00:40:47.756Z,119
2018-10-12T00:41:00.147Z,119
2018-10-12T00:41:12.581Z,119
2018-10-12T00:41:24.997Z,119
2018-10-12T00:41:37.376Z,119
2018-10-12T00:41:49.916Z,119
2018-10-12T00:42:02.300Z,119
2018-10-12T00:42:14.781Z,119
2018-10-12T00:42:27.169Z,119
2018-10-12T00:42:39.582Z,119
2018-10-12T00:42:52.006Z,119
2018-10-12T00:43:04.415Z,119
2018-10-12T00:43:16.966Z,119
2018-10-12T00:43:29.391Z,119
2018-10-12T00:43:41.793Z,119
2018-10-12T00:43:54.198Z,119
2018-10-12T00:44:06.592Z,119
2018-10-12T00:44:18.989Z,119
2018-10-12T00:44:31.615Z,119
2018-10-12T00:44:44.203Z,119
2018-10-12T00:44:56.632Z,119
2018-10-12T00:45:09.062Z,119
2018-10-12T00:45:21.464Z,119
2018-10-12T00:45:33.854Z,119
2018-10-12T00:45:46.231Z,119
2018-10-12T00:45:58.626Z,120
2018-10-12T00:46:11.017Z,120
2018-10-12T00:46:23.459Z,120
2018-10-12T00:46:35.863Z,120
2018-10-12T00:46:48.275Z,120
2018-10-12T00:47:00.659Z,120
2018-10-12T00:47:13.141Z,120
2018-10-12T00:47:25.623Z,120
2018-10-12T00:47:38.033Z,120
2018-10-12T00:47:50.449Z,120
2018-10-12T00:48:02.853Z,120
2018-10-12T00:48:15.250Z,120
2018-10-12T00:48:27.632Z,120
2018-10-12T00:48:40.163Z,120
2018-10-12T00:48:52.575Z,120
2018-10-12T00:49:04.977Z,120
2018-10-12T00:49:17.363Z,120
2018-10-12T00:49:29.789Z,120
2018-10-12T00:49:43.085Z,120
2018-10-12T00:49:57.124Z,120
2018-10-12T00:50:09.588Z,120
2018-10-12T00:50:21.990Z,120
2018-10-12T00:50:34.398Z,120
2018-10-12T00:50:46.811Z,120
2018-10-12T00:50:59.236Z,120
2018-10-12T00:51:11.634Z,120
2018-10-12T00:51:24.038Z,120
2018-10-12T00:51:36.518Z,120
2018-10-12T00:51:48.927Z,120
2018-10-12T00:52:01.344Z,120
2018-10-12T00:52:13.753Z,120
2018-10-12T00:52:26.174Z,120
2018-10-12T00:52:38.584Z,120
2018-10-12T00:52:50.973Z,120
2018-10-12T00:53:03.377Z,120
2018-10-12T00:53:15.772Z,120
2018-10-12T00:53:28.176Z,120
2018-10-12T00:53:40.582Z,120
2018-10-12T00:53:52.993Z,120
2018-10-12T00:54:05.423Z,120
2018-10-12T00:54:17.823Z,120
2018-10-12T00:54:30.290Z,120
2018-10-12T00:54:42.678Z,120
2018-10-12T00:54:55.089Z,120
2018-10-12T00:55:07.501Z,120
2018-10-12T00:55:19.905Z,120
2018-10-12T00:55:32.346Z,120
2018-10-12T00:55:45.062Z,120
2018-10-12T00:55:57.517Z,120
2018-10-12T00:56:09.991Z,120
2018-10-12T00:56:22.391Z,120
2018-10-12T00:56:34.806Z,120
2018-10-12T00:56:47.202Z,120
2018-10-12T00:56:59.603Z,120
2018-10-12T00:57:12.006Z,120
2018-10-12T00:57:24.396Z,120
2018-10-12T00:57:36.788Z,120
2018-10-12T00:57:49.163Z,120
2018-10-12T00:58:01.696Z,120
2018-10-12T00:58:14.089Z,120
2018-10-12T00:58:26.493Z,120
2018-10-12T00:58:38.907Z,120
2018-10-12T00:58:51.421Z,120
2018-10-12T00:59:03.809Z,120
2018-10-12T00:59:16.235Z,120
2018-10-12T00:59:28.641Z,120
2018-10-12T00:59:41.035Z,120
2018-10-12T00:59:53.447Z,120
2018-10-12T01:00:05.859Z,120
2018-10-12T01:00:18.278Z,120
2018-10-12T01:00:30.696Z,120
2018-10-12T01:00:43.125Z,120
2018-10-12T01:00:55.571Z,120
2018-10-12T01:01:07.994Z,120
2018-10-12T01:01:20.417Z,120
2018-10-12T01:01:32.831Z,120
2018-10-12T01:01:45.236Z,120
2018-10-12T01:01:57.632Z,120
2018-10-12T01:02:10.042Z,120
2018-10-12T01:02:22.433Z,120
2018-10-12T01:02:34.869Z,120
2018-10-12T01:02:47.334Z,120
2018-10-12T01:02:59.950Z,120
2018-10-12T01:03:12.369Z,120
2018-10-12T01:03:24.779Z,120
2018-10-12T01:03:37.173Z,120
2018-10-12T01:03:49.583Z,120
2018-10-12T01:04:02.077Z,120
2018-10-12T01:04:14.480Z,120
2018-10-12T01:04:26.950Z,120
2018-10-12T01:04:39.367Z,120
2018-10-12T01:04:52.123Z,120
2018-10-12T01:05:04.557Z,120
2018-10-12T01:05:16.967Z,120
2018-10-12T01:05:29.391Z,120
2018-10-12T01:05:41.788Z,120
2018-10-12T01:05:54.207Z,120
2018-10-12T01:06:06.611Z,120
2018-10-12T01:06:19.012Z,120
2018-10-12T01:06:31.608Z,120
2018-10-12T01:06:45.314Z,120
2018-10-12T01:06:58.301Z,120
2018-10-12T01:07:10.736Z,120
2018-10-12T01:07:23.164Z,120
2018-10-12T01:07:35.567Z,120
2018-10-12T01:07:47.986Z,120
2018-10-12T01:08:00.378Z,120
2018-10-12T01:08:12.772Z,120
2018-10-12T01:08:25.186Z,120
2018-10-12T01:08:37.590Z,120
2018-10-12T01:08:50.048Z,120
2018-10-12T01:09:02.438Z,120
2018-10-12T01:09:14.842Z,120
2018-10-12T01:09:27.314Z,120
2018-10-12T01:09:39.703Z,120
2018-10-12T01:09:52.104Z,120
2018-10-12T01:10:04.500Z,120
2018-10-12T01:10:16.901Z,120
2018-10-12T01:10:29.322Z,120
2018-10-12T01:10:41.726Z,120
2018-10-12T01:10:54.121Z,120
2018-10-12T01:11:06.515Z,120
2018-10-12T01:11:18.930Z,120
2018-10-12T01:11:31.315Z,120
2018-10-12T01:11:43.725Z,120
2018-10-12T01:11:56.122Z,120
2018-10-12T01:12:09.120Z,120
2018-10-12T01:12:22.767Z,120
2018-10-12T01:12:35.432Z,120
2018-10-12T01:12:47.856Z,120
2018-10-12T01:13:00.252Z,120
2018-10-12T01:13:12.651Z,120
2018-10-12T01:13:25.062Z,120
2018-10-12T01:13:37.459Z,120
2018-10-12T01:13:49.861Z,120
2018-10-12T01:14:02.265Z,120
2018-10-12T01:14:14.674Z,120
2018-10-12T01:14:27.062Z,120
2018-10-12T01:14:39.461Z,120
2018-10-12T01:14:51.870Z,120
2018-10-12T01:15:04.288Z,120
2018-10-12T01:15:16.733Z,120
2018-10-12T01:15:29.159Z,120
2018-10-12T01:15:41.561Z,120
2018-10-12T01:15:53.956Z,120
2018-10-12T01:16:06.362Z,120
2018-10-12T01:16:18.769Z,120
2018-10-12T01:16:31.169Z,120
2018-10-12T01:16:43.559Z,120
2018-10-12T01:16:55.957Z,120
2018-10-12T01:17:08.342Z,120
2018-10-12T01:17:20.904Z,120
2018-10-12T01:17:33.304Z,120
2018-10-12T01:17:45.694Z,120
2018-10-12T01:17:58.098Z,120
2018-10-12T01:18:10.500Z,120
2018-10-12T01:18:22.923Z,120
2018-10-12T01:18:35.301Z,120
2018-10-12T01:18:47.693Z,120
2018-10-12T01:19:00.082Z,120
2018-10-12T01:19:12.477Z,120
2018-10-12T01:19:25.016Z,120
2018-10-12T01:19:37.400Z,120
2018-10-12T01:19:49.787Z,120
2018-10-12T01:20:02.188Z,120
2018-10-12T01:20:14.587Z,120
2018-10-12T01:20:27.175Z,120
2018-10-12T01:20:39.566Z,120
2018-10-12T01:20:52.090Z,120
2018-10-12T01:21:04.620Z,120
2018-10-12T01:21:17.000Z,120
2018-10-12T01:21:29.526Z,120
2018-10-12T01:21:42.043Z,120
2018-10-12T01:21:54.430Z,120
2018-10-12T01:22:06.831Z,120
2018-10-12T01:22:19.498Z,120
2018-10-12T01:22:31.895Z,120
2018-10-12T01:22:44.322Z,120
2018-10-12T01:22:56.734Z,120
2018-10-12T01:23:09.158Z,120
2018-10-12T01:23:21.563Z,120
2018-10-12T01:23:33.970Z,120
2018-10-12T01:23:46.521Z,120
2018-10-12T01:23:58.969Z,120
2018-10-12T01:24:11.396Z,120
2018-10-12T01:24:23.911Z,120
2018-10-12T01:24:36.304Z,120
2018-10-12T01:24:48.802Z,120
2018-10-12T01:25:01.373Z,120
2018-10-12T01:25:13.815Z,120
2018-10-12T01:25:26.231Z,120
2018-10-12T01:25:38.678Z,120
2018-10-12T01:25:51.069Z,120
2018-10-12T01:26:03.469Z,120
2018-10-12T01:26:15.883Z,120
2018-10-12T01:26:28.336Z,120
2018-10-12T01:26:40.744Z,120
2018-10-12T01:26:53.147Z,120
2018-10-12T01:27:05.559Z,120
2018-10-12T01:27:17.954Z,120
2018-10-12T01:27:31.441Z,120
2018-10-12T01:27:43.839Z,120
2018-10-12T01:27:56.253Z,120
2018-10-12T01:28:08.668Z,120
2018-10-12T01:28:21.060Z,120
2018-10-12T01:28:33.443Z,120
2018-10-12T01:28:45.822Z,120
2018-10-12T01:28:58.849Z,120
2018-10-12T01:29:11.284Z,120
2018-10-12T01:29:23.703Z,120
2018-10-12T01:29:36.107Z,120
2018-10-12T01:29:48.658Z,120
2018-10-12T01:30:01.060Z,120
2018-10-12T01:30:13.483Z,120
2018-10-12T01:30:25.894Z,120
2018-10-12T01:30:38.313Z,120
2018-10-12T01:30:50.717Z,120
2018-10-12T01:31:03.135Z,120
2018-10-12T01:31:15.652Z,120
2018-10-12T01:31:28.061Z,120
2018-10-12T01:31:40.464Z,120
2018-10-12T01:31:52.875Z,120
2018-10-12T01:32:05.305Z,120
2018-10-12T01:32:17.714Z,120
2018-10-12T01:32:30.152Z,120
2018-10-12T01:32:42.578Z,120
2018-10-12T01:32:55.056Z,120
2018-10-12T01:33:07.482Z,120
2018-10-12T01:33:19.901Z,120
2018-10-12T01:33:32.326Z,120
2018-10-12T01:33:44.747Z,120
2018-10-12T01:33:57.338Z,120
2018-10-12T01:34:09.740Z,120
2018-10-12T01:34:22.133Z,120
2018-10-12T01:34:34.521Z,120
2018-10-12T01:34:47.041Z,120
2018-10-12T01:34:59.425Z,120
2018-10-12T01:35:11.883Z,120
2018-10-12T01:35:24.287Z,120
2018-10-12T01:35:36.810Z,120
2018-10-12T01:35:49.205Z,120
2018-10-12T01:36:01.729Z,120
2018-10-12T01:36:14.107Z,120
2018-10-12T01:36:26.509Z,120
2018-10-12T01:36:38.901Z,120
2018-10-12T01:36:51.286Z,120
2018-10-12T01:37:03.669Z,120
2018-10-12T01:37:16.051Z,120
2018-10-12T01:37:28.450Z,120
2018-10-12T01:37:40.853Z,120
2018-10-12T01:37:53.263Z,120
2018-10-12T01:38:05.659Z,120
2018-10-12T01:38:18.074Z,120
2018-10-12T01:38:30.518Z,120
2018-10-12T01:38:42.924Z,120
2018-10-12T01:38:55.327Z,120
2018-10-12T01:39:07.729Z,120
2018-10-12T01:39:20.132Z,120
2018-10-12T01:39:32.518Z,120
2018-10-12T01:39:45.191Z,120
2018-10-12T01:39:57.586Z,120
2018-10-12T01:40:09.989Z,120
2018-10-12T01:40:22.396Z,120
2018-10-12T01:40:34.814Z,120
2018-10-12T01:40:47.210Z,120
2018-10-12T01:40:59.616Z,120
2018-10-12T01:41:12.017Z,120
2018-10-12T01:41:24.412Z,120
2018-10-12T01:41:36.826Z,120
2018-10-12T01:41:49.211Z,120
2018-10-12T01:42:01.700Z,120
2018-10-12T01:42:14.099Z,120
2018-10-12T01:42:26.489Z,120
2018-10-12T01:42:38.921Z,120
2018-10-12T01:42:51.335Z,120
2018-10-12T01:43:03.733Z,120
2018-10-12T01:43:16.240Z,120
2018-10-12T01:43:28.633Z,119
2018-10-12T01:43:41.088Z,115
2018-10-12T01:43:53.484Z,115
2018-10-12T01:44:05.883Z,115
2018-10-12T01:44:18.295Z,115
2018-10-12T01:44:31.094Z,115
2018-10-12T01:44:43.493Z,115
2018-10-12T01:44:56.030Z,115
2018-10-12T01:45:08.449Z,115
2018-10-12T01:45:20.861Z,115
2018-10-12T01:45:33.252Z,115
2018-10-12T01:45:45.657Z,115
2018-10-12T01:45:58.055Z,115
2018-10-12T01:46:10.457Z,115
2018-10-12T01:46:23.348Z,115
2018-10-12T01:46:35.748Z,112
2018-10-12T01:46:48.131Z,112
2018-10-12T01:47:00.570Z,112
2018-10-12T01:47:12.969Z,112
2018-10-12T01:47:25.348Z,112
2018-10-12T01:47:37.743Z,112
2018-10-12T01:47:50.197Z,112
2018-10-12T01:48:02.568Z,112
2018-10-12T01:48:14.945Z,112
2018-10-12T01:48:27.333Z,112
2018-10-12T01:48:39.715Z,112
2018-10-12T01:48:52.130Z,112
2018-10-12T01:49:04.525Z,112
2018-10-12T01:49:16.931Z,112
2018-10-12T01:49:29.325Z,112
2018-10-12T01:49:41.875Z,112
2018-10-12T01:49:54.299Z,112
2018-10-12T01:50:06.742Z,112
2018-10-12T01:50:19.120Z,107
2018-10-12T01:50:31.520Z,100
2018-10-12T01:50:43.907Z,100
2018-10-12T01:50:56.308Z,100
2018-10-12T01:51:08.705Z,100
2018-10-12T01:51:21.097Z,100
2018-10-12T01:51:33.481Z,100
2018-10-12T01:51:45.861Z,100
2018-10-12T01:51:58.229Z,100
2018-10-12T01:52:10.633Z,100
2018-10-12T01:52:23.042Z,100
2018-10-12T01:52:35.431Z,100
2018-10-12T01:52:47.821Z,100
2018-10-12T01:53:00.207Z,100
2018-10-12T01:53:12.618Z,100
2018-10-12T01:53:25.013Z,100
2018-10-12T01:53:37.414Z,100
2018-10-12T01:53:49.820Z,100
2018-10-12T01:54:02.200Z,100
2018-10-12T01:54:14.587Z,100
2018-10-12T01:54:26.985Z,100
2018-10-12T01:54:39.404Z,100
2018-10-12T01:54:51.793Z,100
2018-10-12T01:55:04.200Z,100
2018-10-12T01:55:17.061Z,100
2018-10-12T01:55:29.525Z,100
2018-10-12T01:55:41.935Z,100
2018-10-12T01:55:54.636Z,100
2018-10-12T01:56:07.053Z,100
2018-10-12T01:56:19.466Z,100
2018-10-12T01:56:31.844Z,100
2018-10-12T01:56:44.275Z,100
2018-10-12T01:56:56.665Z,100
2018-10-12T01:57:09.080Z,100
2018-10-12T01:57:21.465Z,100
2018-10-12T01:57:33.884Z,100
2018-10-12T01:57:46.300Z,100
2018-10-12T01:57:58.859Z,100
2018-10-12T01:58:11.410Z,100
2018-10-12T01:58:23.824Z,100
2018-10-12T01:58:36.245Z,100
2018-10-12T01:58:48.795Z,100
2018-10-12T01:59:01.209Z,100
2018-10-12T01:59:13.588Z,100
2018-10-12T01:59:25.971Z,100
2018-10-12T01:59:38.377Z,100
2018-10-12T01:59:50.777Z,100
2018-10-12T02:00:03.167Z,100
2018-10-12T02:00:15.575Z,100
2018-10-12T02:00:27.978Z,100
2018-10-12T02:00:40.424Z,100
2018-10-12T02:00:52.844Z,100
2018-10-12T02:01:05.310Z,100
2018-10-12T02:01:17.762Z,100
2018-10-12T02:01:30.226Z,100
2018-10-12T02:01:42.676Z,100
2018-10-12T02:01:55.085Z,100
2018-10-12T02:02:07.484Z,100
2018-10-12T02:02:19.879Z,100
2018-10-12T02:02:32.277Z,100
2018-10-12T02:02:44.682Z,100
2018-10-12T02:02:57.144Z,100
2018-10-12T02:03:09.567Z,100
2018-10-12T02:03:22.010Z,100
2018-10-12T02:03:34.414Z,100
2018-10-12T02:03:46.833Z,100
2018-10-12T02:03:59.529Z,100
2018-10-12T02:04:11.943Z,100
2018-10-12T02:04:24.332Z,100
2018-10-12T02:04:36.745Z,100
2018-10-12T02:04:49.230Z,100
2018-10-12T02:05:01.615Z,100
2018-10-12T02:05:14.028Z,100
2018-10-12T02:05:26.643Z,100
2018-10-12T02:05:39.031Z,100
2018-10-12T02:05:51.412Z,100
2018-10-12T02:06:03.797Z,100
2018-10-12T02:06:16.197Z,100
2018-10-12T02:06:28.607Z,100
2018-10-12T02:06:41.020Z,100
2018-10-12T02:06:53.408Z,100
2018-10-12T02:07:05.788Z,100
2018-10-12T02:07:18.190Z,100
2018-10-12T02:07:30.586Z,100
2018-10-12T02:07:42.987Z,100
2018-10-12T02:07:55.371Z,100
2018-10-12T02:08:07.914Z,100
2018-10-12T02:08:20.304Z,100
2018-10-12T02:08:32.961Z,100
2018-10-12T02:08:45.392Z,100
2018-10-12T02:08:57.784Z,100
2018-10-12T02:09:10.173Z,100
2018-10-12T02:09:22.568Z,100
2018-10-12T02:09:34.979Z,100
2018-10-12T02:09:47.477Z,100
2018-10-12T02:10:00.671Z,100
2018-10-12T02:10:14.427Z,100
2018-10-12T02:10:26.840Z,100
2018-10-12T02:10:39.392Z,100
2018-10-12T02:10:51.820Z,100
2018-10-12T02:11:04.203Z,100
2018-10-12T02:11:16.605Z,100
2018-10-12T02:11:28.992Z,100
2018-10-12T02:11:41.383Z,100
2018-10-12T02:11:53.761Z,100
2018-10-12T02:12:06.145Z,100
2018-10-12T02:12:18.541Z,100
2018-10-12T02:12:30.932Z,100
2018-10-12T02:12:44.111Z,100
2018-10-12T02:12:56.535Z,100
2018-10-12T02:13:08.989Z,100
2018-10-12T02:13:21.445Z,100
2018-10-12T02:13:33.930Z,100
2018-10-12T02:13:46.429Z,100
2018-10-12T02:13:58.887Z,100
2018-10-12T02:14:11.369Z,100
2018-10-12T02:14:23.834Z,100
2018-10-12T02:14:36.293Z,100
2018-10-12T02:14:48.797Z,100
2018-10-12T02:15:01.192Z,100
2018-10-12T02:15:13.658Z,100
2018-10-12T02:15:26.041Z,100
2018-10-12T02:15:38.748Z,100
2018-10-12T02:15:51.129Z,100
2018-10-12T02:16:03.509Z,100
2018-10-12T02:16:16.024Z,100
2018-10-12T02:16:28.408Z,100
2018-10-12T02:16:40.784Z,100
2018-10-12T02:16:53.184Z,100
2018-10-12T02:17:05.615Z,100
2018-10-12T02:17:18.000Z,100
2018-10-12T02:17:30.422Z,100
2018-10-12T02:17:42.808Z,100
2018-10-12T02:17:55.359Z,100
2018-10-12T02:18:07.749Z,100
2018-10-12T02:18:20.147Z,100
2018-10-12T02:18:32.532Z,100
2018-10-12T02:18:44.964Z,100
2018-10-12T02:18:57.431Z,100
2018-10-12T02:19:09.897Z,100
2018-10-12T02:19:22.358Z,100
2018-10-12T02:19:34.944Z,100
2018-10-12T02:19:47.423Z,100
2018-10-12T02:19:59.933Z,100
2018-10-12T02:20:12.409Z,100
2018-10-12T02:20:24.989Z,100
2018-10-12T02:20:37.457Z,100
2018-10-12T02:20:50.218Z,100
2018-10-12T02:21:02.700Z,100
2018-10-12T02:21:15.176Z,100
2018-10-12T02:21:27.601Z,100
2018-10-12T02:21:39.988Z,100
2018-10-12T02:21:52.370Z,100
2018-10-12T02:22:04.797Z,100
2018-10-12T02:22:17.329Z,100
2018-10-12T02:22:29.774Z,100
2018-10-12T02:22:42.155Z,100
2018-10-12T02:22:54.556Z,100
2018-10-12T02:23:06.969Z,100
2018-10-12T02:23:19.364Z,100
2018-10-12T02:23:31.739Z,100
2018-10-12T02:23:44.136Z,100
2018-10-12T02:23:56.514Z,100
2018-10-12T02:24:08.930Z,100
2018-10-12T02:24:21.592Z,100
2018-10-12T02:24:33.990Z,100
2018-10-12T02:24:46.648Z,100
2018-10-12T02:24:59.186Z,100
2018-10-12T02:25:11.576Z,100
2018-10-12T02:25:23.978Z,100
2018-10-12T02:25:36.368Z,100
2018-10-12T02:25:48.747Z,100
2018-10-12T02:26:01.127Z,100
2018-10-12T02:26:13.508Z,100
2018-10-12T02:26:25.934Z,100
2018-10-12T02:26:38.325Z,100
2018-10-12T02:26:50.772Z,100
2018-10-12T02:27:03.237Z,100
2018-10-12T02:27:15.652Z,100
2018-10-12T02:27:28.644Z,100
2018-10-12T02:27:41.026Z,100
2018-10-12T02:27:53.452Z,100
2018-10-12T02:28:05.900Z,100
2018-10-12T02:28:18.275Z,100
2018-10-12T02:28:30.708Z,100
2018-10-12T02:28:43.113Z,100
2018-10-12T02:28:55.583Z,100
2018-10-12T02:29:08.017Z,100
2018-10-12T02:29:20.418Z,100
2018-10-12T02:29:32.807Z,100
2018-10-12T02:29:45.357Z,100
2018-10-12T02:29:57.743Z,100
2018-10-12T02:30:10.165Z,100
2018-10-12T02:30:22.599Z,100
2018-10-12T02:30:35.015Z,100
2018-10-12T02:30:47.446Z,100
2018-10-12T02:30:59.850Z,100
2018-10-12T02:31:12.419Z,100
2018-10-12T02:31:24.818Z,100
2018-10-12T02:31:37.228Z,100
2018-10-12T02:31:49.658Z,100
2018-10-12T02:32:02.068Z,100
2018-10-12T02:32:14.479Z,100
2018-10-12T02:32:26.885Z,100
2018-10-12T02:32:39.378Z,100
2018-10-12T02:32:51.861Z,100
2018-10-12T02:33:04.358Z,100
2018-10-12T02:33:16.787Z,100
2018-10-12T02:33:29.174Z,100
2018-10-12T02:33:41.975Z,100
2018-10-12T02:33:54.395Z,100
2018-10-12T02:34:06.833Z,100
2018-10-12T02:34:19.264Z,100
2018-10-12T02:34:31.678Z,100
2018-10-12T02:34:44.068Z,100
2018-10-12T02:34:56.473Z,100
2018-10-12T02:35:08.873Z,100
2018-10-12T02:35:21.262Z,100
2018-10-12T02:35:33.698Z,100
2018-10-12T02:35:46.110Z,100
2018-10-12T02:35:58.512Z,100
2018-10-12T02:36:10.964Z,100
2018-10-12T02:36:23.474Z,100
2018-10-12T02:36:35.945Z,100
2018-10-12T02:36:48.407Z,100
2018-10-12T02:37:00.800Z,100
2018-10-12T02:37:13.195Z,100
2018-10-12T02:37:25.651Z,100
2018-10-12T02:37:38.043Z,100
2018-10-12T02:37:50.451Z,100
2018-10-12T02:38:02.834Z,100
2018-10-12T02:38:15.299Z,100
2018-10-12T02:38:27.761Z,100
2018-10-12T02:38:40.341Z,100
2018-10-12T02:38:52.748Z,100
2018-10-12T02:39:05.127Z,100
2018-10-12T02:39:17.512Z,100
2018-10-12T02:39:29.915Z,100
2018-10-12T02:39:42.953Z,100
2018-10-12T02:39:55.417Z,100
2018-10-12T02:40:07.869Z,100
2018-10-12T02:40:20.353Z,128
2018-10-12T02:40:32.848Z,129
2018-10-12T02:40:45.245Z,129
2018-10-12T02:40:57.629Z,129
2018-10-12T02:41:10.042Z,129
2018-10-12T02:41:22.420Z,129
2018-10-12T02:41:34.808Z,129
2018-10-12T02:41:47.202Z,129
2018-10-12T02:41:59.723Z,129
2018-10-12T02:42:12.124Z,129
2018-10-12T02:42:24.529Z,129
2018-10-12T02:42:37.019Z,129
2018-10-12T02:42:49.475Z,129
2018-10-12T02:43:01.921Z,129
2018-10-12T02:43:14.537Z,129
2018-10-12T02:43:26.976Z,129
2018-10-12T02:43:39.406Z,129
2018-10-12T02:43:52.230Z,129
2018-10-12T02:44:04.625Z,129
2018-10-12T02:44:17.076Z,129
2018-10-12T02:44:29.476Z,129
2018-10-12T02:44:42.077Z,129
2018-10-12T02:44:54.554Z,129
2018-10-12T02:45:06.981Z,129
2018-10-12T02:45:19.564Z,129
2018-10-12T02:45:31.949Z,129
2018-10-12T02:45:44.334Z,129
2018-10-12T02:45:56.721Z,129
2018-10-12T02:46:09.123Z,129
2018-10-12T02:46:21.596Z,129
2018-10-12T02:46:34.077Z,129
2018-10-12T02:46:46.508Z,129
2018-10-12T02:46:58.893Z,129
2018-10-12T02:47:11.290Z,129
2018-10-12T02:47:23.689Z,129
2018-10-12T02:47:36.084Z,129
2018-10-12T02:47:48.476Z,129
2018-10-12T02:48:00.872Z,129
2018-10-12T02:48:13.340Z,129
2018-10-12T02:48:25.735Z,129
2018-10-12T02:48:38.139Z,129
2018-10-12T02:48:50.531Z,129
2018-10-12T02:49:03.227Z,129
2018-10-12T02:49:15.780Z,129
2018-10-12T02:49:28.297Z,129
2018-10-12T02:49:41.115Z,129
2018-10-12T02:49:53.612Z,129
2018-10-12T02:50:06.098Z,129
2018-10-12T02:50:18.546Z,129
2018-10-12T02:50:30.942Z,129
2018-10-12T02:50:43.401Z,129
2018-10-12T02:50:55.780Z,129
2018-10-12T02:51:08.199Z,129
2018-10-12T02:51:20.680Z,129
2018-10-12T02:51:33.137Z,129